Oyens, Iowa
Current Conditions -  °F | °C
As of 7:35 PM on Monday 22 Dec 2014 (Local Time) from KLRJ Reporting Station
Haze Haze  
Wind Chill: 39°   Ceiling: 500
Heat Index: 39°   Visibility: 6mi
Dew Point: 39°   Wind: 3mph
Humidity: 100%   Direction: NA
Pressure: 29.45"   Gusts: NA
Location:  42.82°N, 96.06°W
Report Text: KLRJ 230135Z AUTO VRB03KT 6SM BR OVC005 04/04 A2945 RMK AO2
Loading
Personal Weather Stations






























Interactive Weather Map New forecast layout! Learn more

10-Day Weather Forecast

Advertisements
Track Severe Weather on mobile